| time (UTC) | temp F | wind direction | speed MPH | gust MPH | rain 1hr in | rain 24hr in | rain mn in | humidity % | barometer mb |
| 20260831110421 | 48 | 310 | 3.0 | 3.0 | 0.00 | 0.00 | 0.00 | 76 | 1015.5 |
| 20260831105920 | 48 | 248 | 2.0 | 2.0 | 0.00 | 0.00 | 0.00 | 76 | 1015.4 |
| 20260831105416 | 48 | 249 | 0.0 | 0.0 | 0.00 | 0.00 | 0.00 | 75 | 1015.5 |
| 20260831104911 | 49 | 233 | 0.0 | 0.0 | 0.00 | 0.00 | 0.00 | 74 | 1015.5 |
| 20260831104407 | 49 | 248 | 0.0 | 0.0 | 0.00 | 0.00 | 0.00 | 73 | 1015.3 |
| 20260831103902 | 49 | 170 | 0.0 | 0.0 | 0.00 | 0.00 | 0.00 | 73 | 1015.4 |
| 20260831103357 | 49 | 298 | 1.0 | 1.0 | 0.00 | 0.00 | 0.00 | 73 | 1015.4 |
| 20260831102853 | 49 | 295 | 0.0 | 0.0 | 0.00 | 0.00 | 0.00 | 74 | 1015.1 |
| 20260831102353 | 49 | 317 | 0.0 | 1.0 | 0.00 | 0.00 | 0.00 | 72 | 1015.2 |
| 20260831101848 | 49 | 328 | 2.0 | 3.0 | 0.00 | 0.00 | 0.00 | 72 | 1015.2 |
| 20260831101348 | 48 | 299 | 2.0 | 2.0 | 0.00 | 0.00 | 0.00 | 75 | 1015.1 |
| 20260831100845 | 46 | 237 | 0.0 | 1.0 | 0.00 | 0.00 | 0.00 | 79 | 1015.1 |
| 20260831100340 | 45 | 295 | 0.0 | 1.0 | 0.00 | 0.00 | 0.00 | 81 | 1015.1 |
| 20260831095839 | 44 | 199 | 0.0 | 0.0 | 0.00 | 0.00 | 0.00 | 82 | 1015.2 |
| 20260831095334 | 45 | 192 | 1.0 | 1.0 | 0.00 | 0.00 | 0.00 | 81 | 1015.4 |
| 20260831094829 | 45 | 183 | 0.0 | 1.0 | 0.00 | 0.00 | 0.00 | 81 | 1015.6 |
| 20260831094324 | 45 | 188 | 0.0 | 0.0 | 0.00 | 0.00 | 0.00 | 80 | 1015.5 |
| 20260831093820 | 48 | 179 | 2.0 | 2.0 | 0.00 | 0.00 | 0.00 | 75 | 1015.6 |
| 20260831093315 | 47 | 226 | 0.0 | 0.0 | 0.00 | 0.00 | 0.00 | 77 | 1015.5 |
| 20260831092812 | 47 | 303 | 1.0 | 2.0 | 0.00 | 0.00 | 0.00 | 78 | 1015.5 |
| 20260831092307 | 47 | 254 | 0.0 | 0.0 | 0.00 | 0.00 | 0.00 | 78 | 1015.2 |
| 20260831091802 | 47 | 238 | 1.0 | 1.0 | 0.00 | 0.00 | 0.00 | 77 | 1015.3 |
| 20260831091257 | 47 | 221 | 4.0 | 5.0 | 0.00 | 0.00 | 0.00 | 77 | 1015.2 |
| 20260831090753 | 46 | 206 | 2.0 | 2.0 | 0.00 | 0.00 | 0.00 | 78 | 1015.2 |
| 20260831090249 | 46 | 244 | 0.0 | 0.0 | 0.00 | 0.00 | 0.00 | 78 | 1014.9 |
| 20260831085745 | 47 | 248 | 0.0 | 1.0 | 0.00 | 0.00 | 0.00 | 77 | 1014.9 |
| 20260831085239 | 47 | 248 | 1.0 | 1.0 | 0.00 | 0.00 | 0.00 | 76 | 1014.9 |
| 20260831084734 | 48 | 221 | 1.0 | 1.0 | 0.00 | 0.00 | 0.00 | 75 | 1015.0 |
| 20260831084231 | 48 | 223 | 2.0 | 3.0 | 0.00 | 0.00 | 0.00 | 75 | 1015.1 |
| 20260831083726 | 48 | 252 | 0.0 | 1.0 | 0.00 | 0.00 | 0.00 | 75 | 1014.9 |
| 20260831083222 | 48 | 241 | 1.0 | 2.0 | 0.00 | 0.00 | 0.00 | 75 | 1014.8 |
| 20260831082720 | 48 | 262 | 2.0 | 3.0 | 0.00 | 0.00 | 0.00 | 74 | 1014.6 |
| 20260831082216 | 48 | 215 | 3.0 | 3.0 | 0.00 | 0.00 | 0.00 | 73 | 1014.6 |
| 20260831081711 | 49 | 249 | 4.0 | 5.0 | 0.00 | 0.00 | 0.00 | 71 | 1014.5 |
| 20260831081207 | 49 | 183 | 1.0 | 1.0 | 0.00 | 0.00 | 0.00 | 71 | 1014.5 |
| 20260831080702 | 49 | 102 | 0.0 | 0.0 | 0.00 | 0.00 | 0.00 | 71 | 1014.5 |
| 20260831080156 | 50 | 80 | 0.0 | 0.0 | 0.00 | 0.00 | 0.00 | 71 | 1014.4 |
| 20260831075652 | 50 | 90 | 1.0 | 1.0 | 0.00 | 0.00 | 0.00 | 69 | 1014.4 |
| 20260831075148 | 50 | 224 | 3.0 | 3.0 | 0.00 | 0.00 | 0.00 | 69 | 1014.3 |
| 20260831074646 | 50 | 284 | 1.0 | 1.0 | 0.00 | 0.00 | 0.00 | 70 | 1014.4 |
| 20260831074141 | 49 | 277 | 1.0 | 2.0 | 0.00 | 0.00 | 0.00 | 71 | 1014.2 |
| 20260831073636 | 48 | 249 | 2.0 | 2.0 | 0.00 | 0.00 | 0.00 | 74 | 1014.4 |
| 20260831073136 | 48 | 250 | 1.0 | 2.0 | 0.00 | 0.00 | 0.00 | 75 | 1014.4 |
| 20260831072631 | 48 | 232 | 3.0 | 3.0 | 0.00 | 0.00 | 0.00 | 75 | 1014.5 |
| 20260831072128 | 50 | 221 | 3.0 | 3.0 | 0.00 | 0.00 | 0.00 | 72 | 1014.6 |
| 20260831071626 | 51 | 219 | 3.0 | 3.0 | 0.00 | 0.00 | 0.00 | 67 | 1014.4 |
| 20260831071122 | 51 | 233 | 3.0 | 3.0 | 0.00 | 0.00 | 0.00 | 66 | 1014.4 |
| 20260831070621 | 51 | 233 | 1.0 | 2.0 | 0.00 | 0.00 | 0.00 | 68 | 1014.5 |
| 20260831070116 | 51 | 235 | 0.0 | 1.0 | 0.00 | 0.00 | 0.00 | 68 | 1014.5 |
| 20260831065614 | 51 | 241 | 0.0 | 0.0 | 0.00 | 0.00 | 0.00 | 68 | 1014.5 |
| 20260831065108 | 51 | 231 | 0.0 | 0.0 | 0.00 | 0.00 | 0.00 | 67 | 1014.5 |
| 20260831064603 | 52 | 248 | 0.0 | 1.0 | 0.00 | 0.00 | 0.00 | 66 | 1014.6 |
| 20260831064059 | 52 | 227 | 2.0 | 3.0 | 0.00 | 0.00 | 0.00 | 66 | 1014.6 |
| 20260831063554 | 52 | 280 | 2.0 | 3.0 | 0.00 | 0.00 | 0.00 | 66 | 1014.5 |
| 20260831063054 | 52 | 241 | 1.0 | 1.0 | 0.00 | 0.00 | 0.00 | 65 | 1014.3 |
| 20260831062549 | 52 | 315 | 2.0 | 3.0 | 0.00 | 0.00 | 0.00 | 65 | 1014.8 |
| 20260831062049 | 52 | 257 | 2.0 | 2.0 | 0.00 | 0.00 | 0.00 | 66 | 1014.8 |
| 20260831061547 | 52 | 245 | 4.0 | 5.0 | 0.00 | 0.00 | 0.00 | 66 | 1014.8 |
| 20260831061043 | 52 | 228 | 1.0 | 2.0 | 0.00 | 0.00 | 0.00 | 66 | 1014.6 |
| 20260831060538 | 52 | 243 | 0.0 | 1.0 | 0.00 | 0.00 | 0.00 | 66 | 1014.6 |
| 20260831060033 | 52 | 271 | 2.0 | 3.0 | 0.00 | 0.00 | 0.00 | 66 | 1014.5 |
| 20260831055527 | 52 | 256 | 1.0 | 2.0 | 0.00 | 0.13 | 0.13 | 65 | 1014.5 |
| 20260831055024 | 52 | 300 | 3.0 | 3.0 | 0.00 | 0.13 | 0.13 | 64 | 1014.8 |
| 20260831054523 | 52 | 265 | 1.0 | 2.0 | 0.00 | 0.13 | 0.13 | 65 | 1014.5 |
| 20260831054022 | 52 | 247 | 3.0 | 6.0 | 0.00 | 0.13 | 0.13 | 64 | 1014.4 |
| 20260831053520 | 53 | 277 | 3.0 | 3.0 | 0.00 | 0.13 | 0.13 | 63 | 1014.4 |
| 20260831053016 | 53 | 298 | 1.0 | 2.0 | 0.00 | 0.13 | 0.13 | 62 | 1014.2 |
| 20260831052514 | 53 | 267 | 4.0 | 6.0 | 0.00 | 0.13 | 0.13 | 61 | 1014.3 |
| 20260831052009 | 54 | 232 | 3.0 | 3.0 | 0.00 | 0.13 | 0.13 | 61 | 1014.1 |
| 20260831051507 | 54 | 235 | 3.0 | 3.0 | 0.00 | 0.13 | 0.13 | 60 | 1014.3 |
| 20260831051007 | 54 | 245 | 3.0 | 3.0 | 0.00 | 0.13 | 0.13 | 60 | 1014.3 |
| 20260831050506 | 55 | 267 | 5.0 | 6.0 | 0.00 | 0.13 | 0.13 | 59 | 1014.5 |
| 20260831050005 | 55 | 214 | 3.0 | 3.0 | 0.00 | 0.13 | 0.13 | 58 | 1014.5 |
| 20260831045459 | 55 | 262 | 5.0 | 6.0 | 0.00 | 0.13 | 0.13 | 57 | 1014.3 |
| 20260831044954 | 55 | 268 | 4.0 | 5.0 | 0.00 | 0.13 | 0.13 | 57 | 1014.4 |
| 20260831044449 | 55 | 275 | 4.0 | 7.0 | 0.00 | 0.13 | 0.13 | 56 | 1014.4 |
| 20260831043944 | 55 | 263 | 4.0 | 6.0 | 0.00 | 0.13 | 0.13 | 56 | 1014.5 |
| 20260831043439 | 55 | 260 | 4.0 | 6.0 | 0.00 | 0.13 | 0.13 | 56 | 1014.6 |
| 20260831042934 | 56 | 247 | 4.0 | 6.0 | 0.00 | 0.13 | 0.13 | 56 | 1014.6 |
| 20260831042433 | 56 | 245 | 3.0 | 3.0 | 0.00 | 0.13 | 0.13 | 55 | 1014.4 |
| 20260831041928 | 57 | 224 | 3.0 | 5.0 | 0.00 | 0.13 | 0.13 | 54 | 1014.5 |
| 20260831041427 | 57 | 244 | 3.0 | 3.0 | 0.00 | 0.13 | 0.13 | 54 | 1014.4 |
| 20260831040922 | 58 | 201 | 4.0 | 5.0 | 0.00 | 0.13 | 0.13 | 53 | 1014.2 |
| 20260831040418 | 58 | 285 | 5.0 | 8.0 | 0.00 | 0.13 | 0.13 | 51 | 1014.4 |
| 20260831035915 | 58 | 288 | 5.0 | 7.0 | 0.00 | 0.13 | 0.13 | 51 | 1014.5 |
| 20260831035414 | 59 | 297 | 5.0 | 7.0 | 0.00 | 0.13 | 0.13 | 51 | 1014.3 |
| 20260831034909 | 59 | 288 | 5.0 | 7.0 | 0.00 | 0.13 | 0.13 | 51 | 1014.5 |
| 20260831034404 | 59 | 188 | 4.0 | 6.0 | 0.00 | 0.13 | 0.13 | 51 | 1014.3 |
| 20260831033859 | 59 | 163 | 2.0 | 3.0 | 0.00 | 0.13 | 0.13 | 51 | 1014.3 |
| 20260831033355 | 59 | 303 | 3.0 | 3.0 | 0.00 | 0.13 | 0.13 | 51 | 1014.4 |
| 20260831032850 | 59 | 234 | 4.0 | 6.0 | 0.00 | 0.13 | 0.13 | 50 | 1014.1 |
| 20260831032344 | 59 | 246 | 6.0 | 8.0 | 0.00 | 0.13 | 0.13 | 50 | 1014.3 |
| 20260831031839 | 59 | 252 | 2.0 | 3.0 | 0.00 | 0.13 | 0.13 | 51 | 1014.2 |
| 20260831031338 | 58 | 249 | 2.0 | 3.0 | 0.00 | 0.13 | 0.13 | 51 | 1014.1 |
| 20260831030834 | 58 | 278 | 3.0 | 5.0 | 0.00 | 0.13 | 0.13 | 51 | 1013.9 |
| 20260831030332 | 58 | 299 | 4.0 | 7.0 | 0.00 | 0.13 | 0.13 | 51 | 1013.8 |
| 20260831025826 | 58 | 222 | 1.0 | 2.0 | 0.00 | 0.13 | 0.13 | 51 | 1013.8 |
| 20260831025325 | 58 | 303 | 4.0 | 8.0 | 0.00 | 0.13 | 0.13 | 51 | 1013.6 |
| 20260831024821 | 58 | 290 | 0.0 | 1.0 | 0.00 | 0.13 | 0.13 | 50 | 1013.4 |
| 20260831024320 | 59 | 184 | 4.0 | 7.0 | 0.00 | 0.13 | 0.13 | 50 | 1013.3 |
| 20260831023819 | 59 | 192 | 3.0 | 5.0 | 0.00 | 0.13 | 0.13 | 50 | 1013.3 |
| 20260831023318 | 59 | 235 | 6.0 | 8.0 | 0.00 | 0.13 | 0.13 | 49 | 1013.3 |
| 20260831022814 | 59 | 233 | 4.0 | 6.0 | 0.00 | 0.13 | 0.13 | 49 | 1013.1 |
| 20260831022312 | 60 | 211 | 3.0 | 6.0 | 0.00 | 0.13 | 0.13 | 48 | 1013.1 |
| 20260831021807 | 60 | 238 | 8.0 | 13.0 | 0.00 | 0.13 | 0.13 | 47 | 1013.1 |
| 20260831021302 | 60 | 239 | 2.0 | 2.0 | 0.00 | 0.13 | 0.13 | 47 | 1013.1 |
| 20260831020758 | 60 | 202 | 2.0 | 3.0 | 0.00 | 0.13 | 0.13 | 47 | 1013.0 |
| 20260831020257 | 60 | 321 | 7.0 | 11.0 | 0.00 | 0.13 | 0.13 | 47 | 1013.2 |
| 20260831015753 | 60 | 252 | 4.0 | 6.0 | 0.00 | 0.13 | 0.13 | 48 | 1013.2 |
| 20260831015249 | 60 | 250 | 5.0 | 7.0 | 0.00 | 0.13 | 0.13 | 49 | 1013.1 |
| 20260831014748 | 60 | 50 | 5.0 | 8.0 | 0.00 | 0.13 | 0.13 | 47 | 1013.1 |
| 20260831014243 | 60 | 255 | 6.0 | 9.0 | 0.00 | 0.13 | 0.13 | 48 | 1012.9 |
| 20260831013739 | 60 | 255 | 3.0 | 3.0 | 0.00 | 0.13 | 0.13 | 48 | 1013.0 |
| 20260831013238 | 60 | 319 | 3.0 | 5.0 | 0.00 | 0.13 | 0.13 | 47 | 1013.1 |
| 20260831012733 | 60 | 180 | 0.0 | 1.0 | 0.00 | 0.13 | 0.13 | 47 | 1012.8 |
| 20260831012229 | 61 | 229 | 4.0 | 6.0 | 0.00 | 0.13 | 0.13 | 47 | 1012.8 |
| 20260831011728 | 62 | 300 | 3.0 | 5.0 | 0.00 | 0.13 | 0.13 | 46 | 1012.8 |
| 20260831011224 | 62 | 305 | 8.0 | 14.0 | 0.00 | 0.13 | 0.13 | 45 | 1012.9 |
| 20260831010719 | 62 | 272 | 4.0 | 5.0 | 0.00 | 0.13 | 0.13 | 45 | 1013.0 |
| 20260831010214 | 61 | 235 | 4.0 | 7.0 | 0.00 | 0.13 | 0.13 | 47 | 1013.0 |
| 20260831005709 | 62 | 282 | 4.0 | 7.0 | 0.00 | 0.13 | 0.13 | 45 | 1013.0 |
| 20260831005204 | 62 | 234 | 2.0 | 5.0 | 0.00 | 0.13 | 0.13 | 47 | 1013.0 |
| 20260831004659 | 63 | 273 | 9.0 | 10.0 | 0.00 | 0.13 | 0.13 | 46 | 1012.8 |
| 20260831004155 | 64 | 282 | 4.0 | 7.0 | 0.00 | 0.13 | 0.13 | 45 | 1012.9 |
| 20260831003651 | 64 | 174 | 4.0 | 6.0 | 0.00 | 0.13 | 0.13 | 43 | 1012.7 |
| 20260831003147 | 63 | 126 | 2.0 | 2.0 | 0.00 | 0.13 | 0.13 | 46 | 1013.0 |
| 20260831002645 | 63 | 190 | 6.0 | 10.0 | 0.00 | 0.13 | 0.13 | 46 | 1012.9 |
| 20260831002141 | 65 | 266 | 7.0 | 8.0 | 0.00 | 0.13 | 0.13 | 43 | 1012.9 |
| 20260831001637 | 65 | 243 | 5.0 | 10.0 | 0.00 | 0.13 | 0.13 | 43 | 1012.8 |
| 20260831001132 | 65 | 232 | 3.0 | 5.0 | 0.00 | 0.13 | 0.13 | 43 | 1013.0 |
| 20260831000629 | 65 | 249 | 9.0 | 13.0 | 0.00 | 0.13 | 0.13 | 43 | 1012.8 |
| 20260831000128 | 66 | 263 | 7.0 | 14.0 | 0.00 | 0.13 | 0.13 | 42 | 1013.2 |
| 20260830235627 | 65 | 222 | 10.0 | 13.0 | 0.00 | 0.13 | 0.13 | 41 | 1013.0 |
| 20260830235122 | 65 | 176 | 4.0 | 6.0 | 0.00 | 0.13 | 0.13 | 42 | 1012.9 |
| 20260830234617 | 65 | 240 | 7.0 | 13.0 | 0.00 | 0.13 | 0.13 | 42 | 1012.8 |
| 20260830234113 | 66 | 248 | 7.0 | 11.0 | 0.00 | 0.13 | 0.13 | 42 | 1012.7 |
| 20260830233608 | 66 | 249 | 6.0 | 8.0 | 0.00 | 0.13 | 0.13 | 42 | 1012.8 |
| 20260830233104 | 67 | 264 | 6.0 | 8.0 | 0.00 | 0.13 | 0.13 | 41 | 1012.7 |
| 20260830232600 | 66 | 12 | 6.0 | 8.0 | 0.00 | 0.13 | 0.13 | 42 | 1012.7 |
| 20260830232055 | 66 | 290 | 7.0 | 13.0 | 0.00 | 0.13 | 0.13 | 43 | 1012.8 |
| 20260830231551 | 67 | 220 | 2.0 | 3.0 | 0.00 | 0.13 | 0.13 | 44 | 1012.7 |
| 20260830231050 | 66 | 226 | 11.0 | 17.0 | 0.00 | 0.13 | 0.13 | 41 | 1012.7 |
| 20260830230545 | 65 | 331 | 4.0 | 6.0 | 0.00 | 0.13 | 0.13 | 45 | 1012.7 |
| 20260830230040 | 66 | 240 | 7.0 | 14.0 | 0.00 | 0.13 | 0.13 | 43 | 1012.5 |
| 20260830225536 | 66 | 252 | 7.0 | 11.0 | 0.00 | 0.13 | 0.13 | 44 | 1012.6 |
| 20260830225036 | 67 | 343 | 7.0 | 11.0 | 0.00 | 0.13 | 0.13 | 43 | 1012.7 |
| 20260830224534 | 66 | 298 | 2.0 | 3.0 | 0.00 | 0.13 | 0.13 | 46 | 1012.7 |
| 20260830224031 | 66 | 282 | 13.0 | 18.0 | 0.00 | 0.13 | 0.13 | 42 | 1012.6 |
| 20260830223527 | 66 | 207 | 7.0 | 8.0 | 0.00 | 0.13 | 0.13 | 43 | 1012.8 |
| 20260830223027 | 66 | 232 | 9.0 | 14.0 | 0.00 | 0.13 | 0.13 | 43 | 1012.9 |
| 20260830222521 | 64 | 246 | 10.0 | 15.0 | 0.00 | 0.13 | 0.13 | 45 | 1012.8 |
| 20260830222017 | 64 | 210 | 7.0 | 8.0 | 0.00 | 0.13 | 0.13 | 45 | 1012.8 |
| 20260830221513 | 66 | 314 | 6.0 | 8.0 | 0.00 | 0.13 | 0.13 | 45 | 1012.9 |
| 20260830221004 | 65 | 192 | 4.0 | 6.0 | 0.00 | 0.13 | 0.13 | 45 | 1012.9 |
| 20260830220503 | 65 | 243 | 3.0 | 5.0 | 0.00 | 0.13 | 0.13 | 45 | 1013.0 |
| 20260830220001 | 64 | 225 | 3.0 | 5.0 | 0.00 | 0.13 | 0.13 | 47 | 1013.0 |
| 20260830215456 | 64 | 333 | 6.0 | 10.0 | 0.00 | 0.13 | 0.13 | 46 | 1013.1 |
| 20260830214951 | 63 | 240 | 11.0 | 14.0 | 0.00 | 0.13 | 0.13 | 46 | 1013.1 |
| 20260830214446 | 62 | 230 | 9.0 | 10.0 | 0.00 | 0.13 | 0.13 | 47 | 1013.1 |
| 20260830213940 | 62 | 222 | 10.0 | 11.0 | 0.00 | 0.13 | 0.13 | 47 | 1013.4 |
| 20260830213435 | 62 | 205 | 10.0 | 13.0 | 0.00 | 0.13 | 0.13 | 47 | 1013.1 |
| 20260830212931 | 62 | 226 | 9.0 | 10.0 | 0.00 | 0.13 | 0.13 | 49 | 1013.3 |
| 20260830212426 | 62 | 242 | 10.0 | 15.0 | 0.00 | 0.13 | 0.13 | 47 | 1013.3 |
| 20260830211926 | 63 | 270 | 7.0 | 9.0 | 0.00 | 0.13 | 0.13 | 46 | 1013.2 |
| 20260830211421 | 63 | 218 | 7.0 | 9.0 | 0.00 | 0.13 | 0.13 | 47 | 1013.4 |
| 20260830210916 | 63 | 174 | 6.0 | 8.0 | 0.00 | 0.13 | 0.13 | 47 | 1013.3 |
| 20260830210415 | 63 | 254 | 11.0 | 13.0 | 0.00 | 0.13 | 0.13 | 47 | 1013.4 |
| 20260830205913 | 63 | 236 | 7.0 | 9.0 | 0.00 | 0.13 | 0.13 | 47 | 1013.4 |
| 20260830205413 | 63 | 225 | 13.0 | 16.0 | 0.00 | 0.13 | 0.13 | 47 | 1013.4 |
| 20260830204908 | 64 | 245 | 11.0 | 13.0 | 0.00 | 0.13 | 0.13 | 47 | 1013.4 |
| 20260830204407 | 64 | 240 | 9.0 | 13.0 | 0.00 | 0.13 | 0.13 | 46 | 1013.4 |
| 20260830203902 | 63 | 211 | 10.0 | 11.0 | 0.00 | 0.13 | 0.13 | 47 | 1013.6 |
| 20260830203359 | 64 | 236 | 16.0 | 17.0 | 0.00 | 0.13 | 0.13 | 46 | 1013.6 |
| 20260830202857 | 65 | 230 | 8.0 | 9.0 | 0.00 | 0.13 | 0.13 | 46 | 1013.7 |
| 20260830202353 | 64 | 320 | 8.0 | 15.0 | 0.00 | 0.13 | 0.13 | 48 | 1013.4 |
| 20260830201848 | 63 | 260 | 7.0 | 10.0 | 0.00 | 0.13 | 0.13 | 46 | 1013.6 |
| 20260830201342 | 62 | 271 | 7.0 | 8.0 | 0.00 | 0.13 | 0.13 | 50 | 1013.3 |
| 20260830200838 | 62 | 229 | 9.0 | 10.0 | 0.00 | 0.13 | 0.13 | 47 | 1013.6 |
| 20260830200337 | 61 | 306 | 5.0 | 7.0 | 0.00 | 0.13 | 0.13 | 53 | 1013.8 |
| 20260830195832 | 59 | 244 | 5.0 | 7.0 | 0.00 | 0.13 | 0.13 | 57 | 1014.0 |
| 20260830195327 | 59 | 250 | 6.0 | 9.0 | 0.00 | 0.13 | 0.13 | 58 | 1013.8 |
| 20260830194825 | 60 | 281 | 4.0 | 6.0 | 0.00 | 0.13 | 0.13 | 55 | 1013.8 |
| 20260830194324 | 62 | 241 | 4.0 | 6.0 | 0.00 | 0.13 | 0.13 | 56 | 1013.6 |
| 20260830193819 | 63 | 263 | 5.0 | 10.0 | 0.00 | 0.13 | 0.13 | 48 | 1013.3 |
| 20260830193313 | 64 | 215 | 3.0 | 3.0 | 0.00 | 0.13 | 0.13 | 47 | 1013.0 |
| 20260830192804 | 64 | 225 | 4.0 | 5.0 | 0.00 | 0.13 | 0.13 | 46 | 1013.0 |
| 20260830192305 | 64 | 186 | 4.0 | 5.0 | 0.00 | 0.13 | 0.13 | 46 | 1013.1 |
| 20260830191759 | 64 | 321 | 5.0 | 7.0 | 0.00 | 0.13 | 0.13 | 44 | 1013.0 |
| 20260830191259 | 67 | 240 | 5.0 | 7.0 | 0.00 | 0.13 | 0.13 | 44 | 1013.0 |
| 20260830190754 | 68 | 252 | 1.0 | 1.0 | 0.00 | 0.13 | 0.13 | 45 | 1012.9 |
| 20260830190250 | 67 | 201 | 6.0 | 7.0 | 0.00 | 0.13 | 0.13 | 43 | 1013.0 |
| 20260830185748 | 65 | 235 | 6.0 | 9.0 | 0.00 | 0.13 | 0.13 | 49 | 1012.8 |
| 20260830185243 | 64 | 250 | 0.0 | 1.0 | 0.00 | 0.13 | 0.13 | 50 | 1012.8 |
| 20260830184743 | 64 | 194 | 2.0 | 2.0 | 0.00 | 0.13 | 0.13 | 49 | 1013.0 |
| 20260830184242 | 64 | 223 | 11.0 | 17.0 | 0.00 | 0.13 | 0.13 | 43 | 1012.9 |
| 20260830183738 | 64 | 228 | 11.0 | 13.0 | 0.00 | 0.13 | 0.13 | 43 | 1012.9 |
| 20260830183232 | 64 | 221 | 7.0 | 8.0 | 0.00 | 0.13 | 0.13 | 42 | 1013.1 |
| 20260830182727 | 65 | 242 | 11.0 | 14.0 | 0.00 | 0.13 | 0.13 | 41 | 1013.1 |
| 20260830182224 | 65 | 215 | 13.0 | 17.0 | 0.00 | 0.13 | 0.13 | 38 | 1013.1 |
| 20260830181720 | 66 | 238 | 8.0 | 10.0 | 0.00 | 0.13 | 0.13 | 42 | 1013.3 |
| 20260830181215 | 66 | 225 | 5.0 | 7.0 | 0.00 | 0.13 | 0.13 | 43 | 1013.4 |
| 20260830180713 | 66 | 218 | 7.0 | 8.0 | 0.00 | 0.13 | 0.13 | 40 | 1013.2 |
| 20260830180208 | 64 | 247 | 7.0 | 9.0 | 0.00 | 0.13 | 0.13 | 40 | 1013.3 |
| 20260830175708 | 65 | 218 | 10.0 | 13.0 | 0.00 | 0.13 | 0.13 | 44 | 1013.3 |
| 20260830175203 | 64 | 225 | 7.0 | 8.0 | 0.00 | 0.13 | 0.13 | 42 | 1013.4 |
| 20260830174658 | 65 | 248 | 9.0 | 10.0 | 0.00 | 0.13 | 0.13 | 41 | 1013.2 |
| 20260830174154 | 66 | 219 | 8.0 | 9.0 | 0.00 | 0.13 | 0.13 | 40 | 1013.3 |
| 20260830173648 | 65 | 212 | 5.0 | 6.0 | 0.00 | 0.13 | 0.13 | 46 | 1013.1 |
| 20260830173143 | 65 | 221 | 11.0 | 15.0 | 0.00 | 0.13 | 0.13 | 46 | 1013.2 |
| 20260830172640 | 64 | 233 | 5.0 | 8.0 | 0.00 | 0.13 | 0.13 | 46 | 1013.2 |
| 20260830172137 | 64 | 253 | 7.0 | 9.0 | 0.00 | 0.13 | 0.13 | 43 | 1013.3 |
| 20260830171636 | 64 | 250 | 5.0 | 7.0 | 0.00 | 0.13 | 0.13 | 44 | 1013.3 |
| 20260830171131 | 64 | 201 | 5.0 | 7.0 | 0.00 | 0.13 | 0.13 | 49 | 1013.3 |
| 20260830170626 | 63 | 236 | 8.0 | 9.0 | 0.00 | 0.13 | 0.13 | 44 | 1013.4 |
| 20260830170125 | 63 | 240 | 11.0 | 13.0 | 0.00 | 0.13 | 0.13 | 45 | 1013.8 |
| 20260830165620 | 64 | 225 | 9.0 | 9.0 | 0.00 | 0.13 | 0.13 | 45 | 1013.7 |
| 20260830165115 | 64 | 226 | 6.0 | 8.0 | 0.00 | 0.13 | 0.13 | 47 | 1013.7 |
| 20260830164612 | 62 | 235 | 10.0 | 11.0 | 0.00 | 0.13 | 0.13 | 45 | 1013.6 |
| 20260830164107 | 63 | 244 | 8.0 | 10.0 | 0.00 | 0.13 | 0.13 | 46 | 1013.6 |
| 20260830163604 | 62 | 242 | 6.0 | 7.0 | 0.00 | 0.13 | 0.13 | 51 | 1013.7 |
| 20260830163104 | 62 | 228 | 9.0 | 11.0 | 0.00 | 0.13 | 0.13 | 49 | 1013.6 |
| 20260830162559 | 61 | 210 | 9.0 | 10.0 | 0.00 | 0.13 | 0.13 | 55 | 1013.6 |
| 20260830162054 | 61 | 230 | 8.0 | 9.0 | 0.00 | 0.13 | 0.13 | 54 | 1013.6 |
| 20260830161548 | 60 | 212 | 6.0 | 7.0 | 0.00 | 0.13 | 0.13 | 58 | 1013.4 |
| 20260830161044 | 60 | 235 | 6.0 | 7.0 | 0.00 | 0.13 | 0.13 | 58 | 1013.4 |
| 20260830160540 | 60 | 225 | 6.0 | 7.0 | 0.00 | 0.13 | 0.13 | 59 | 1013.4 |
| 20260830160035 | 60 | 240 | 6.0 | 8.0 | 0.00 | 0.13 | 0.13 | 62 | 1013.7 |
| 20260830155531 | 59 | 228 | 8.0 | 9.0 | 0.00 | 0.13 | 0.13 | 66 | 1013.8 |
| 20260830155026 | 59 | 221 | 9.0 | 13.0 | 0.00 | 0.13 | 0.13 | 69 | 1013.9 |
| 20260830154521 | 59 | 221 | 7.0 | 8.0 | 0.00 | 0.13 | 0.13 | 67 | 1014.1 |
| 20260830154017 | 59 | 233 | 7.0 | 9.0 | 0.00 | 0.13 | 0.13 | 67 | 1013.9 |
| 20260830153514 | 59 | 227 | 6.0 | 7.0 | 0.00 | 0.13 | 0.13 | 71 | 1013.8 |
| 20260830153014 | 58 | 222 | 5.0 | 6.0 | 0.00 | 0.13 | 0.13 | 68 | 1013.8 |
| 20260830152508 | 58 | 238 | 6.0 | 6.0 | 0.00 | 0.13 | 0.13 | 67 | 1013.7 |
| 20260830152007 | 57 | 235 | 5.0 | 6.0 | 0.00 | 0.13 | 0.13 | 68 | 1013.9 |
| 20260830151506 | 56 | 208 | 5.0 | 6.0 | 0.00 | 0.13 | 0.13 | 78 | 1013.8 |
| 20260830151001 | 57 | 212 | 4.0 | 5.0 | 0.00 | 0.13 | 0.13 | 76 | 1014.0 |
| 20260830150455 | 56 | 181 | 6.0 | 7.0 | 0.00 | 0.13 | 0.13 | 73 | 1014.1 |
| 20260830145950 | 56 | 159 | 3.0 | 3.0 | 0.00 | 0.13 | 0.13 | 78 | 1014.0 |
| 20260830145444 | 56 | 193 | 4.0 | 5.0 | 0.00 | 0.13 | 0.13 | 79 | 1014.1 |
| 20260830144939 | 57 | 232 | 3.0 | 3.0 | 0.00 | 0.13 | 0.13 | 73 | 1014.1 |
| 20260830144437 | 56 | 220 | 2.0 | 2.0 | 0.00 | 0.13 | 0.13 | 69 | 1014.1 |
| 20260830143936 | 56 | 216 | 3.0 | 3.0 | 0.00 | 0.13 | 0.13 | 68 | 1013.9 |
| 20260830143432 | 55 | 226 | 2.0 | 2.0 | 0.00 | 0.13 | 0.13 | 76 | 1013.9 |
| 20260830142930 | 53 | 244 | 2.0 | 3.0 | 0.00 | 0.13 | 0.13 | 85 | 1014.0 |
| 20260830142426 | 52 | 241 | 2.0 | 2.0 | 0.00 | 0.13 | 0.13 | 90 | 1013.9 |
| 20260830141920 | 51 | 219 | 0.0 | 0.0 | 0.00 | 0.13 | 0.13 | 93 | 1013.9 |
| 20260830141416 | 50 | 229 | 0.0 | 0.0 | 0.00 | 0.13 | 0.13 | 94 | 1013.9 |
| 20260830140911 | 50 | 230 | 0.0 | 0.0 | 0.00 | 0.13 | 0.13 | 94 | 1013.9 |
| 20260830140406 | 50 | 230 | 0.0 | 0.0 | 0.00 | 0.13 | 0.13 | 94 | 1014.0 |
| 20260830135905 | 50 | 231 | 0.0 | 0.0 | 0.00 | 0.13 | 0.13 | 94 | 1014.1 |
| 20260830135401 | 50 | 231 | 0.0 | 0.0 | 0.00 | 0.13 | 0.13 | 93 | 1014.0 |
| 20260830134856 | 50 | 231 | 0.0 | 0.0 | 0.00 | 0.13 | 0.13 | 93 | 1014.0 |
| 20260830134352 | 50 | 232 | 0.0 | 0.0 | 0.00 | 0.13 | 0.13 | 93 | 1014.0 |
| 20260830133847 | 50 | 232 | 0.0 | 0.0 | 0.00 | 0.13 | 0.13 | 93 | 1014.0 |
| 20260830133342 | 50 | 240 | 0.0 | 0.0 | 0.00 | 0.13 | 0.13 | 93 | 1014.0 |
| 20260830132837 | 50 | 218 | 0.0 | 0.0 | 0.00 | 0.13 | 0.13 | 92 | 1014.2 |
| 20260830132334 | 50 | 214 | 0.0 | 0.0 | 0.00 | 0.13 | 0.13 | 92 | 1013.9 |
| 20260830131832 | 50 | 211 | 0.0 | 0.0 | 0.00 | 0.13 | 0.13 | 92 | 1014.1 |
| 20260830131327 | 50 | 227 | 0.0 | 0.0 | 0.00 | 0.13 | 0.13 | 92 | 1014.2 |
| 20260830130822 | 51 | 228 | 0.0 | 0.0 | 0.00 | 0.13 | 0.13 | 91 | 1013.9 |
| 20260830130318 | 50 | 231 | 0.0 | 0.0 | 0.00 | 0.13 | 0.13 | 91 | 1013.9 |
| 20260830125816 | 50 | 231 | 0.0 | 0.0 | 0.00 | 0.13 | 0.13 | 90 | 1013.9 |
| 20260830125313 | 51 | 231 | 0.0 | 0.0 | 0.00 | 0.13 | 0.13 | 90 | 1013.8 |
| 20260830124809 | 51 | 231 | 0.0 | 0.0 | 0.00 | 0.13 | 0.13 | 89 | 1013.8 |
| 20260830124304 | 52 | 231 | 0.0 | 0.0 | 0.00 | 0.13 | 0.13 | 89 | 1013.7 |
| 20260830123756 | 52 | 244 | 0.0 | 0.0 | 0.00 | 0.13 | 0.13 | 88 | 1013.4 |
| 20260830123252 | 53 | 244 | 0.0 | 0.0 | 0.00 | 0.13 | 0.13 | 88 | 1013.4 |
| 20260830122749 | 53 | 233 | 0.0 | 0.0 | 0.00 | 0.13 | 0.13 | 88 | 1013.3 |
| 20260830122244 | 53 | 220 | 0.0 | 0.0 | 0.00 | 0.13 | 0.13 | 87 | 1013.3 |
| 20260830121739 | 53 | 198 | 0.0 | 0.0 | 0.00 | 0.13 | 0.13 | 88 | 1013.0 |
| 20260830121238 | 53 | 229 | 0.0 | 0.0 | 0.00 | 0.13 | 0.13 | 87 | 1013.1 |
| 20260830120734 | 54 | 230 | 0.0 | 0.0 | 0.00 | 0.13 | 0.13 | 87 | 1013.3 |
| 20260830120230 | 54 | 234 | 0.0 | 0.0 | 0.00 | 0.13 | 0.13 | 87 | 1013.0 |
| 20260830115726 | 54 | 234 | 0.0 | 0.0 | 0.00 | 0.13 | 0.13 | 87 | 1013.3 |
| 20260830115226 | 54 | 235 | 0.0 | 1.0 | 0.00 | 0.13 | 0.13 | 89 | 1013.2 |
| 20260830114723 | 55 | 283 | 1.0 | 2.0 | 0.00 | 0.13 | 0.13 | 89 | 1013.3 |
| 20260830114218 | 55 | 271 | 0.0 | 0.0 | 0.00 | 0.13 | 0.13 | 87 | 1013.3 |
| 20260830113714 | 55 | 226 | 1.0 | 1.0 | 0.00 | 0.13 | 0.13 | 86 | 1013.0 |
| 20260830113208 | 55 | 150 | 2.0 | 2.0 | 0.00 | 0.13 | 0.13 | 88 | 1012.8 |
| 20260830112704 | 55 | 218 | 0.0 | 0.0 | 0.00 | 0.13 | 0.13 | 88 | 1013.3 |
| 20260830112200 | 55 | 233 | 0.0 | 0.0 | 0.00 | 0.13 | 0.13 | 88 | 1013.3 |
| 20260830111656 | 55 | 204 | 5.0 | 6.0 | 0.00 | 0.13 | 0.13 | 88 | 1013.8 |
| 20260830111151 | 55 | 230 | 5.0 | 6.0 | 0.00 | 0.13 | 0.13 | 88 | 1014.0 |
| 20260830110646 | 55 | 249 | 5.0 | 6.0 | 0.00 | 0.13 | 0.13 | 89 | 1014.1 |